createdAt,value
2016-12-31T00:00:29.104Z,1026.01
2016-12-31T00:01:29.082Z,1026.06
2016-12-31T00:02:29.057Z,1026.01
2016-12-31T00:03:29.033Z,1026
2016-12-31T00:04:29.009Z,1026
2016-12-31T00:05:28.988Z,1026.01
2016-12-31T00:06:28.965Z,1025.97
2016-12-31T00:07:28.939Z,1026
2016-12-31T00:08:28.966Z,1025.94
2016-12-31T00:09:28.892Z,1025.97
2016-12-31T00:10:28.867Z,1025.96
2016-12-31T00:11:28.845Z,1025.94
2016-12-31T00:12:28.821Z,1025.97
2016-12-31T00:13:28.795Z,1025.91
2016-12-31T00:14:28.774Z,1025.91
2016-12-31T00:15:28.750Z,1025.92
2016-12-31T00:16:28.725Z,1025.89
2016-12-31T00:17:28.702Z,1025.87
2016-12-31T00:18:28.677Z,1025.9
2016-12-31T00:19:28.655Z,1025.9
2016-12-31T00:20:28.631Z,1025.87
2016-12-31T00:21:28.606Z,1025.86
2016-12-31T00:22:28.583Z,1025.85
2016-12-31T00:23:28.563Z,1025.82
2016-12-31T00:24:28.534Z,1025.86
2016-12-31T00:25:28.510Z,1025.84
2016-12-31T00:26:28.489Z,1025.79
2016-12-31T00:27:28.464Z,1025.86
2016-12-31T00:28:28.439Z,1025.79
2016-12-31T00:29:28.415Z,1025.82
2016-12-31T00:30:28.392Z,1025.84
2016-12-31T00:31:28.369Z,1025.79
2016-12-31T00:32:28.344Z,1025.78
2016-12-31T00:33:28.322Z,1025.75
2016-12-31T00:34:28.296Z,1025.74
2016-12-31T00:35:28.275Z,1025.77
2016-12-31T00:36:28.250Z,1025.78
2016-12-31T00:37:28.225Z,1025.75
2016-12-31T00:38:28.203Z,1025.75
2016-12-31T00:39:28.179Z,1025.75
2016-12-31T00:40:28.155Z,1025.79
2016-12-31T00:41:28.130Z,1025.79
2016-12-31T00:42:28.308Z,1025.81
2016-12-31T00:43:28.082Z,1025.83
2016-12-31T00:44:28.060Z,1025.79
2016-12-31T00:45:28.035Z,1025.84
2016-12-31T00:46:28.011Z,1025.81
2016-12-31T00:47:27.985Z,1025.83
2016-12-31T00:48:27.964Z,1025.81
2016-12-31T00:49:27.940Z,1025.83
2016-12-31T00:50:27.916Z,1025.82
2016-12-31T00:51:27.892Z,1025.77
2016-12-31T00:52:27.868Z,1025.8
2016-12-31T00:53:27.894Z,1025.84
2016-12-31T00:54:27.819Z,1025.79
2016-12-31T00:55:27.797Z,1025.8
2016-12-31T00:56:27.772Z,1025.78
2016-12-31T00:57:27.747Z,1025.77
2016-12-31T00:58:27.724Z,1025.78
2016-12-31T00:59:27.701Z,1025.8
2016-12-31T01:00:27.675Z,1025.77
2016-12-31T01:01:27.650Z,1025.78
2016-12-31T01:02:27.627Z,1025.78
2016-12-31T01:03:27.602Z,1025.79
2016-12-31T01:04:27.578Z,1025.84
2016-12-31T01:05:27.555Z,1025.84
2016-12-31T01:06:27.534Z,1025.86
2016-12-31T01:07:27.508Z,1025.83
2016-12-31T01:08:27.483Z,1025.83
2016-12-31T01:09:27.458Z,1025.8
2016-12-31T01:10:27.434Z,1025.79
2016-12-31T01:11:27.411Z,1025.82
2016-12-31T01:12:27.387Z,1025.8
2016-12-31T01:13:27.362Z,1025.83
2016-12-31T01:14:27.339Z,1025.83
2016-12-31T01:15:27.315Z,1025.84
2016-12-31T01:16:27.290Z,1025.81
2016-12-31T01:17:27.268Z,1025.82
2016-12-31T01:18:27.244Z,1025.86
2016-12-31T01:19:27.220Z,1025.87
2016-12-31T01:20:27.196Z,1025.89
2016-12-31T01:21:27.170Z,1025.87
2016-12-31T01:22:27.146Z,1025.88
2016-12-31T01:23:27.122Z,1025.89
2016-12-31T01:24:27.098Z,1025.91
2016-12-31T01:25:27.076Z,1025.9
2016-12-31T01:26:27.050Z,1025.87
2016-12-31T01:27:27.026Z,1025.87
2016-12-31T01:28:27.003Z,1025.87
2016-12-31T01:29:26.981Z,1025.86
2016-12-31T01:30:26.953Z,1025.89
2016-12-31T01:31:26.930Z,1025.87
2016-12-31T01:32:26.907Z,1025.88
2016-12-31T01:33:26.882Z,1025.84
2016-12-31T01:34:26.857Z,1025.84
2016-12-31T01:35:26.835Z,1025.86
2016-12-31T01:36:26.811Z,1025.89
2016-12-31T01:37:26.786Z,1025.85
2016-12-31T01:38:26.763Z,1025.85
2016-12-31T01:39:26.737Z,1025.85
2016-12-31T01:40:26.716Z,1025.87
2016-12-31T01:41:26.689Z,1025.88
2016-12-31T01:42:26.665Z,1025.84
2016-12-31T01:43:26.640Z,1025.84
2016-12-31T01:44:26.617Z,1025.83
2016-12-31T01:45:26.592Z,1025.82
2016-12-31T01:46:26.569Z,1025.81
2016-12-31T01:47:26.545Z,1025.83
2016-12-31T01:48:26.520Z,1025.83
2016-12-31T01:49:26.497Z,1025.81
2016-12-31T01:50:26.473Z,1025.78
2016-12-31T01:51:26.448Z,1025.8
2016-12-31T01:52:26.423Z,1025.79
2016-12-31T01:53:26.399Z,1025.78
2016-12-31T01:54:26.376Z,1025.77
2016-12-31T01:55:26.351Z,1025.79
2016-12-31T01:56:26.327Z,1025.78
2016-12-31T01:57:26.304Z,1025.77
2016-12-31T01:58:26.280Z,1025.82
2016-12-31T01:59:26.255Z,1025.78
2016-12-31T02:00:26.231Z,1025.83
2016-12-31T02:01:26.208Z,1025.75
2016-12-31T02:02:26.183Z,1025.73
2016-12-31T02:03:26.160Z,1025.71
2016-12-31T02:04:26.133Z,1025.76
2016-12-31T02:05:26.109Z,1025.69
2016-12-31T02:06:26.085Z,1025.73
2016-12-31T02:07:26.060Z,1025.65
2016-12-31T02:08:26.087Z,1025.66
2016-12-31T02:09:26.013Z,1025.62
2016-12-31T02:10:25.988Z,1025.61
2016-12-31T02:11:25.963Z,1025.61
2016-12-31T02:12:25.941Z,1025.57
2016-12-31T02:13:25.919Z,1025.59
2016-12-31T02:14:25.893Z,1025.57
2016-12-31T02:15:25.872Z,1025.52
2016-12-31T02:16:25.845Z,1025.5
2016-12-31T02:17:25.820Z,1025.55
2016-12-31T02:18:25.797Z,1025.54
2016-12-31T02:19:25.772Z,1025.53
2016-12-31T02:20:25.755Z,1025.51
2016-12-31T02:21:25.722Z,1025.49
2016-12-31T02:22:25.699Z,1025.48
2016-12-31T02:23:25.673Z,1025.45
2016-12-31T02:24:25.649Z,1025.48
2016-12-31T02:25:25.624Z,1025.46
2016-12-31T02:26:25.600Z,1025.39
2016-12-31T02:27:25.577Z,1025.43
2016-12-31T02:28:25.553Z,1025.41
2016-12-31T02:29:25.528Z,1025.42
2016-12-31T02:30:25.503Z,1025.4
2016-12-31T02:31:25.482Z,1025.39
2016-12-31T02:32:25.456Z,1025.4
2016-12-31T02:33:25.430Z,1025.37
2016-12-31T02:34:25.405Z,1025.4
2016-12-31T02:35:25.382Z,1025.38
2016-12-31T02:36:25.357Z,1025.4
2016-12-31T02:37:25.334Z,1025.42
2016-12-31T02:38:25.310Z,1025.39
2016-12-31T02:39:25.282Z,1025.41
2016-12-31T02:40:25.259Z,1025.4
2016-12-31T02:41:25.233Z,1025.41
2016-12-31T02:43:25.184Z,1025.41
2016-12-31T02:44:25.162Z,1025.38
2016-12-31T02:45:25.137Z,1025.4
2016-12-31T02:46:25.111Z,1025.35
2016-12-31T02:47:25.088Z,1025.41
2016-12-31T02:48:25.066Z,1025.44
2016-12-31T02:49:25.039Z,1025.41
2016-12-31T02:50:25.014Z,1025.43
2016-12-31T02:51:24.992Z,1025.39
2016-12-31T02:52:24.967Z,1025.34
2016-12-31T02:53:24.941Z,1025.37
2016-12-31T02:54:24.918Z,1025.35
2016-12-31T02:55:24.891Z,1025.4
2016-12-31T02:56:24.866Z,1025.35
2016-12-31T02:57:24.842Z,1025.36
2016-12-31T02:58:24.817Z,1025.39
2016-12-31T02:59:24.794Z,1025.38
2016-12-31T03:00:24.769Z,1025.38
2016-12-31T03:01:24.744Z,1025.41
2016-12-31T03:02:24.718Z,1025.38
2016-12-31T03:03:24.695Z,1025.36
2016-12-31T03:04:24.669Z,1025.41
2016-12-31T03:05:24.648Z,1025.37
2016-12-31T03:06:24.621Z,1025.33
2016-12-31T03:07:24.595Z,1025.31
2016-12-31T03:08:24.570Z,1025.32
2016-12-31T03:09:24.549Z,1025.32
2016-12-31T03:10:24.521Z,1025.33
2016-12-31T03:11:24.500Z,1025.29
2016-12-31T03:12:24.471Z,1025.27
2016-12-31T03:13:24.448Z,1025.25
2016-12-31T03:14:24.424Z,1025.25
2016-12-31T03:15:24.398Z,1025.25
2016-12-31T03:16:24.378Z,1025.22
2016-12-31T03:17:24.349Z,1025.19
2016-12-31T03:18:24.326Z,1025.16
2016-12-31T03:19:24.301Z,1025.17
2016-12-31T03:20:24.276Z,1025.18
2016-12-31T03:21:24.250Z,1025.16
2016-12-31T03:22:24.226Z,1025.2
2016-12-31T03:23:24.200Z,1025.17
2016-12-31T03:24:24.179Z,1025.15
2016-12-31T03:25:24.151Z,1025.13
2016-12-31T03:26:24.127Z,1025.14
2016-12-31T03:27:24.105Z,1025.12
2016-12-31T03:28:24.078Z,1025.06
2016-12-31T03:29:24.056Z,1025.03
2016-12-31T03:30:24.028Z,1025.09
2016-12-31T03:31:24.005Z,1025.08
2016-12-31T03:32:23.980Z,1025.11
2016-12-31T03:33:23.957Z,1025.12
2016-12-31T03:34:23.929Z,1025.09
2016-12-31T03:35:23.905Z,1025.08
2016-12-31T03:36:23.880Z,1025.08
2016-12-31T03:37:23.854Z,1025.09
2016-12-31T03:38:23.829Z,1025.05
2016-12-31T03:39:23.818Z,1025.05
2016-12-31T03:40:23.785Z,1025.05
2016-12-31T03:41:23.756Z,1025.08
2016-12-31T03:42:23.731Z,1025.04
2016-12-31T03:43:23.707Z,1025.04
2016-12-31T03:44:23.683Z,1025.02
2016-12-31T03:45:23.657Z,1025.07
2016-12-31T03:46:23.632Z,1025.05
2016-12-31T03:47:23.609Z,1025.06
2016-12-31T03:48:23.584Z,1025.08
2016-12-31T03:49:23.559Z,1025.09
2016-12-31T03:50:23.535Z,1025.05
2016-12-31T03:51:23.510Z,1025.08
2016-12-31T03:52:23.488Z,1025.1
2016-12-31T03:53:23.459Z,1025.06
2016-12-31T03:54:23.439Z,1025.06
2016-12-31T03:55:23.413Z,1025.07
2016-12-31T03:56:23.387Z,1025.08
2016-12-31T03:57:23.361Z,1025.04
2016-12-31T03:58:23.338Z,1025.1
2016-12-31T03:59:23.315Z,1025.09
2016-12-31T04:00:23.288Z,1025.13
2016-12-31T04:01:23.262Z,1025.09
2016-12-31T04:02:23.237Z,1025.1
2016-12-31T04:03:23.210Z,1025.07
2016-12-31T04:04:23.187Z,1025.08
2016-12-31T04:05:23.161Z,1025.06
2016-12-31T04:06:23.137Z,1025.06
2016-12-31T04:07:23.112Z,1025.05
2016-12-31T04:08:23.087Z,1025.07
2016-12-31T04:09:23.063Z,1025.08
2016-12-31T04:10:23.040Z,1025.08
2016-12-31T04:11:23.020Z,1025.09
2016-12-31T04:12:22.987Z,1025.04
2016-12-31T04:13:22.964Z,1025.05
2016-12-31T04:14:22.937Z,1025.03
2016-12-31T04:15:22.912Z,1025.01
2016-12-31T04:16:22.889Z,1024.95
2016-12-31T04:17:22.864Z,1024.96
2016-12-31T04:18:22.839Z,1024.96
2016-12-31T04:19:22.814Z,1024.95
2016-12-31T04:20:22.793Z,1024.95
2016-12-31T04:21:22.763Z,1024.92
2016-12-31T04:22:22.739Z,1024.95
2016-12-31T04:23:22.715Z,1024.9
2016-12-31T04:24:22.689Z,1024.92
2016-12-31T04:25:22.664Z,1024.93
2016-12-31T04:26:22.640Z,1024.91
2016-12-31T04:27:22.615Z,1024.92
2016-12-31T04:28:22.591Z,1024.92
2016-12-31T04:29:22.565Z,1024.89
2016-12-31T04:30:22.539Z,1024.92
2016-12-31T04:31:22.516Z,1024.94
2016-12-31T04:32:22.489Z,1024.94
2016-12-31T04:33:22.465Z,1024.9
2016-12-31T04:34:22.440Z,1024.96
2016-12-31T04:35:22.415Z,1024.86
2016-12-31T04:36:22.388Z,1024.89
2016-12-31T04:37:22.364Z,1024.84
2016-12-31T04:38:22.339Z,1024.81
2016-12-31T04:39:22.315Z,1024.83
2016-12-31T04:40:22.291Z,1024.8
2016-12-31T04:41:22.278Z,1024.82
2016-12-31T04:42:22.240Z,1024.81
2016-12-31T04:43:22.213Z,1024.84
2016-12-31T04:44:22.191Z,1024.75
2016-12-31T04:45:22.163Z,1024.74
2016-12-31T04:46:22.139Z,1024.75
2016-12-31T04:47:22.113Z,1024.76
2016-12-31T04:48:22.088Z,1024.74
2016-12-31T04:49:22.064Z,1024.74
2016-12-31T04:50:22.039Z,1024.7
2016-12-31T04:51:22.014Z,1024.72
2016-12-31T04:52:21.989Z,1024.68
2016-12-31T04:53:21.964Z,1024.69
2016-12-31T04:54:21.939Z,1024.67
2016-12-31T04:55:21.916Z,1024.58
2016-12-31T04:56:21.889Z,1024.62
2016-12-31T04:57:21.866Z,1024.58
2016-12-31T04:58:21.839Z,1024.55
2016-12-31T04:59:21.814Z,1024.59
2016-12-31T05:00:21.789Z,1024.59
2016-12-31T05:01:21.764Z,1024.5
2016-12-31T05:02:21.739Z,1024.53
2016-12-31T05:03:21.714Z,1024.55
2016-12-31T05:04:21.690Z,1024.56
2016-12-31T05:05:21.664Z,1024.55
2016-12-31T05:06:21.639Z,1024.57
2016-12-31T05:07:21.614Z,1024.61
2016-12-31T05:08:21.590Z,1024.61
2016-12-31T05:09:21.566Z,1024.6
2016-12-31T05:10:21.539Z,1024.6
2016-12-31T05:11:21.515Z,1024.6
2016-12-31T05:12:21.490Z,1024.57
2016-12-31T05:13:21.463Z,1024.54
2016-12-31T05:14:21.439Z,1024.55
2016-12-31T05:15:21.414Z,1024.52
2016-12-31T05:16:21.389Z,1024.56
2016-12-31T05:17:21.363Z,1024.53
2016-12-31T05:18:21.339Z,1024.56
2016-12-31T05:19:21.315Z,1024.53
2016-12-31T05:20:21.288Z,1024.53
2016-12-31T05:21:21.264Z,1024.54
2016-12-31T05:22:21.240Z,1024.54
2016-12-31T05:23:21.215Z,1024.53
2016-12-31T05:24:21.190Z,1024.57
2016-12-31T05:25:21.166Z,1024.58
2016-12-31T05:26:21.144Z,1024.57
2016-12-31T05:27:21.119Z,1024.57
2016-12-31T05:28:21.091Z,1024.56
2016-12-31T05:29:21.070Z,1024.56
2016-12-31T05:30:21.044Z,1024.59
2016-12-31T05:31:21.015Z,1024.62
2016-12-31T05:32:20.991Z,1024.6
2016-12-31T05:33:20.966Z,1024.64
2016-12-31T05:34:20.940Z,1024.63
2016-12-31T05:35:20.916Z,1024.57
2016-12-31T05:36:20.891Z,1024.57
2016-12-31T05:37:20.866Z,1024.53
2016-12-31T05:38:20.840Z,1024.51
2016-12-31T05:39:20.815Z,1024.52
2016-12-31T05:40:20.790Z,1024.52
2016-12-31T05:41:20.766Z,1024.53
2016-12-31T05:42:20.739Z,1024.53
2016-12-31T05:43:20.715Z,1024.54
2016-12-31T05:44:20.693Z,1024.53
2016-12-31T05:45:20.664Z,1024.51
2016-12-31T05:46:20.641Z,1024.53
2016-12-31T05:47:20.614Z,1024.51
2016-12-31T05:48:20.589Z,1024.54
2016-12-31T05:49:20.566Z,1024.57
2016-12-31T05:50:20.540Z,1024.53
2016-12-31T05:51:20.514Z,1024.55
2016-12-31T05:52:20.489Z,1024.54
2016-12-31T05:53:20.465Z,1024.55
2016-12-31T05:54:20.440Z,1024.56
2016-12-31T05:55:20.414Z,1024.56
2016-12-31T05:56:20.388Z,1024.59
2016-12-31T05:57:20.365Z,1024.56
2016-12-31T05:58:20.340Z,1024.56
2016-12-31T05:59:20.314Z,1024.54
2016-12-31T06:00:20.291Z,1024.55
2016-12-31T06:01:20.266Z,1024.52
2016-12-31T06:02:20.240Z,1024.53
2016-12-31T06:03:20.216Z,1024.57
2016-12-31T06:04:20.191Z,1024.53
2016-12-31T06:05:20.165Z,1024.53
2016-12-31T06:06:20.142Z,1024.55
2016-12-31T06:07:20.128Z,1024.5
2016-12-31T06:08:20.089Z,1024.51
2016-12-31T06:09:20.064Z,1024.51
2016-12-31T06:10:20.040Z,1024.48
2016-12-31T06:11:20.015Z,1024.5
2016-12-31T06:12:19.990Z,1024.47
2016-12-31T06:13:19.964Z,1024.52
2016-12-31T06:14:19.940Z,1024.49
2016-12-31T06:15:19.917Z,1024.51
2016-12-31T06:16:19.890Z,1024.53
2016-12-31T06:17:19.866Z,1024.58
2016-12-31T06:18:19.841Z,1024.56
2016-12-31T06:19:19.815Z,1024.58
2016-12-31T06:20:19.792Z,1024.53
2016-12-31T06:21:19.768Z,1024.59
2016-12-31T06:22:19.741Z,1024.53
2016-12-31T06:23:19.718Z,1024.57
2016-12-31T06:24:19.691Z,1024.54
2016-12-31T06:25:19.667Z,1024.57
2016-12-31T06:26:19.642Z,1024.56
2016-12-31T06:27:19.618Z,1024.61
2016-12-31T06:28:19.591Z,1024.61
2016-12-31T06:29:19.566Z,1024.63
2016-12-31T06:30:19.546Z,1024.63
2016-12-31T06:31:19.518Z,1024.59
2016-12-31T06:32:19.494Z,1024.61
2016-12-31T06:33:19.467Z,1024.64
2016-12-31T06:34:19.442Z,1024.59
2016-12-31T06:35:19.418Z,1024.61
2016-12-31T06:36:19.393Z,1024.6
2016-12-31T06:37:19.369Z,1024.56
2016-12-31T06:38:19.342Z,1024.58
2016-12-31T06:39:19.319Z,1024.56
2016-12-31T06:40:19.293Z,1024.58
2016-12-31T06:41:19.268Z,1024.59
2016-12-31T06:42:19.243Z,1024.54
2016-12-31T06:43:19.420Z,1024.59
2016-12-31T06:44:19.194Z,1024.56
2016-12-31T06:45:19.169Z,1024.58
2016-12-31T06:46:19.143Z,1024.62
2016-12-31T06:47:19.119Z,1024.57
2016-12-31T06:48:19.095Z,1024.57
2016-12-31T06:49:19.067Z,1024.56
2016-12-31T06:50:19.042Z,1024.54
2016-12-31T06:51:19.017Z,1024.58
2016-12-31T06:52:18.993Z,1024.57
2016-12-31T06:53:18.969Z,1024.53
2016-12-31T06:54:18.944Z,1024.53
2016-12-31T06:55:18.917Z,1024.54
2016-12-31T06:56:18.895Z,1024.6
2016-12-31T06:57:18.869Z,1024.54
2016-12-31T06:58:18.843Z,1024.56
2016-12-31T06:59:18.821Z,1024.58
2016-12-31T07:00:18.829Z,1024.56
2016-12-31T07:01:18.770Z,1024.63
2016-12-31T07:02:18.743Z,1024.61
2016-12-31T07:03:18.720Z,1024.58
2016-12-31T07:04:18.694Z,1024.6
2016-12-31T07:05:18.673Z,1024.64
2016-12-31T07:06:18.644Z,1024.61
2016-12-31T07:07:18.620Z,1024.61
2016-12-31T07:08:18.596Z,1024.63
2016-12-31T07:09:18.571Z,1024.57
2016-12-31T07:10:18.548Z,1024.53
2016-12-31T07:11:18.521Z,1024.59
2016-12-31T07:12:18.495Z,1024.57
2016-12-31T07:13:18.471Z,1024.6
2016-12-31T07:14:18.445Z,1024.56
2016-12-31T07:15:18.420Z,1024.56
2016-12-31T07:16:18.396Z,1024.58
2016-12-31T07:17:18.372Z,1024.59
2016-12-31T07:18:18.346Z,1024.58
2016-12-31T07:19:18.320Z,1024.58
2016-12-31T07:20:18.298Z,1024.63
2016-12-31T07:21:18.271Z,1024.64
2016-12-31T07:22:18.247Z,1024.63
2016-12-31T07:23:18.221Z,1024.63
2016-12-31T07:24:18.245Z,1024.66
2016-12-31T07:25:18.171Z,1024.66
2016-12-31T07:26:18.148Z,1024.66
2016-12-31T07:27:18.122Z,1024.68
2016-12-31T07:28:18.100Z,1024.62
2016-12-31T07:29:18.073Z,1024.66
2016-12-31T07:30:18.046Z,1024.65
2016-12-31T07:31:18.022Z,1024.6
2016-12-31T07:32:18.006Z,1024.66
2016-12-31T07:33:17.976Z,1024.66
2016-12-31T07:34:17.949Z,1024.64
2016-12-31T07:35:17.923Z,1024.64
2016-12-31T07:36:17.898Z,1024.62
2016-12-31T07:37:17.875Z,1024.67
2016-12-31T07:38:17.850Z,1024.63
2016-12-31T07:39:17.822Z,1024.67
2016-12-31T07:40:17.798Z,1024.66
2016-12-31T07:41:17.775Z,1024.7
2016-12-31T07:42:17.751Z,1024.68
2016-12-31T07:43:17.725Z,1024.74
2016-12-31T07:44:17.699Z,1024.73
2016-12-31T07:45:17.675Z,1024.76
2016-12-31T07:46:17.649Z,1024.76
2016-12-31T07:47:17.625Z,1024.71
2016-12-31T07:48:17.599Z,1024.71
2016-12-31T07:49:17.575Z,1024.71
2016-12-31T07:50:17.550Z,1024.68
2016-12-31T07:51:17.526Z,1024.71
2016-12-31T07:52:17.501Z,1024.61
2016-12-31T07:53:17.475Z,1024.65
2016-12-31T07:54:17.455Z,1024.7
2016-12-31T07:55:17.435Z,1024.72
2016-12-31T07:56:17.404Z,1024.73
2016-12-31T07:57:17.376Z,1024.74
2016-12-31T07:58:17.353Z,1024.73
2016-12-31T07:59:17.327Z,1024.76
2016-12-31T08:00:17.303Z,1024.78
2016-12-31T08:01:17.277Z,1024.73
2016-12-31T08:02:17.253Z,1024.78
2016-12-31T08:03:17.234Z,1024.74
2016-12-31T08:04:17.205Z,1024.74
2016-12-31T08:05:17.179Z,1024.73
2016-12-31T08:06:17.155Z,1024.75
2016-12-31T08:07:17.136Z,1024.75
2016-12-31T08:08:17.106Z,1024.75
2016-12-31T08:09:17.081Z,1024.75
2016-12-31T08:10:17.058Z,1024.76
2016-12-31T08:11:17.033Z,1024.77
2016-12-31T08:12:17.008Z,1024.74
2016-12-31T08:13:16.983Z,1024.78
2016-12-31T08:14:16.959Z,1024.74
2016-12-31T08:15:16.934Z,1024.76
2016-12-31T08:16:16.912Z,1024.81
2016-12-31T08:17:16.886Z,1024.79
2016-12-31T08:18:16.863Z,1024.82
2016-12-31T08:19:16.837Z,1024.82
2016-12-31T08:20:16.814Z,1024.8
2016-12-31T08:21:16.789Z,1024.8
2016-12-31T08:22:16.765Z,1024.78
2016-12-31T08:23:16.747Z,1024.8
2016-12-31T08:24:16.718Z,1024.81
2016-12-31T08:25:16.692Z,1024.77
2016-12-31T08:26:16.666Z,1024.76
2016-12-31T08:27:16.642Z,1024.79
2016-12-31T08:28:16.618Z,1024.74
2016-12-31T08:29:16.594Z,1024.74
2016-12-31T08:30:16.573Z,1024.74
2016-12-31T08:31:16.547Z,1024.73
2016-12-31T08:32:16.522Z,1024.73
2016-12-31T08:33:16.500Z,1024.69
2016-12-31T08:34:16.486Z,1024.68
2016-12-31T08:35:16.453Z,1024.67
2016-12-31T08:36:16.428Z,1024.66
2016-12-31T08:37:16.411Z,1024.68
2016-12-31T08:38:16.378Z,1024.68
2016-12-31T08:39:16.355Z,1024.68
2016-12-31T08:40:16.330Z,1024.7
2016-12-31T08:41:16.408Z,1024.69
2016-12-31T08:42:16.285Z,1024.68
2016-12-31T08:43:16.462Z,1024.7
2016-12-31T08:44:16.235Z,1024.71
2016-12-31T08:45:16.211Z,1024.71
2016-12-31T08:46:16.187Z,1024.7
2016-12-31T08:47:16.163Z,1024.63
2016-12-31T08:48:16.143Z,1024.64
2016-12-31T08:49:16.115Z,1024.64
2016-12-31T08:50:16.096Z,1024.65
2016-12-31T08:51:16.070Z,1024.65
2016-12-31T08:52:16.044Z,1024.62
2016-12-31T08:53:16.022Z,1024.56
2016-12-31T08:54:15.997Z,1024.57
2016-12-31T08:55:15.972Z,1024.57
2016-12-31T08:56:15.950Z,1024.54
2016-12-31T08:57:15.926Z,1024.53
2016-12-31T08:58:15.904Z,1024.53
2016-12-31T08:59:15.879Z,1024.53
2016-12-31T09:00:15.856Z,1024.56
2016-12-31T09:01:15.832Z,1024.55
2016-12-31T09:02:15.809Z,1024.58
2016-12-31T09:03:15.784Z,1024.56
2016-12-31T09:04:15.762Z,1024.56
2016-12-31T09:05:15.741Z,1024.56
2016-12-31T09:06:15.714Z,1024.54
2016-12-31T09:07:15.692Z,1024.49
2016-12-31T09:08:15.667Z,1024.49
2016-12-31T09:09:15.644Z,1024.49
2016-12-31T09:10:15.621Z,1024.49
2016-12-31T09:11:15.600Z,1024.49
2016-12-31T09:12:15.580Z,1024.49
2016-12-31T09:13:15.551Z,1024.49
2016-12-31T09:14:15.527Z,1024.49
2016-12-31T09:15:15.504Z,1024.5
2016-12-31T09:16:15.481Z,1024.49
2016-12-31T09:17:15.459Z,1024.47
2016-12-31T09:18:15.436Z,1024.52
2016-12-31T09:19:15.415Z,1024.45
2016-12-31T09:20:15.393Z,1024.5
2016-12-31T09:21:15.368Z,1024.56
2016-12-31T09:22:15.346Z,1024.51
2016-12-31T09:23:15.319Z,1024.55
2016-12-31T09:24:15.298Z,1024.52
2016-12-31T09:25:15.274Z,1024.54
2016-12-31T09:26:15.253Z,1024.53
2016-12-31T09:27:15.277Z,1024.56
2016-12-31T09:28:15.214Z,1024.57
2016-12-31T09:29:15.180Z,1024.58
2016-12-31T09:30:15.161Z,1024.61
2016-12-31T09:31:15.135Z,1024.57
2016-12-31T09:32:15.113Z,1024.65
2016-12-31T09:33:15.090Z,1024.54
2016-12-31T09:34:15.067Z,1024.61
2016-12-31T09:35:15.043Z,1024.57
2016-12-31T09:36:15.020Z,1024.57
2016-12-31T09:37:14.998Z,1024.57
2016-12-31T09:38:14.975Z,1024.6
2016-12-31T09:39:14.951Z,1024.6
2016-12-31T09:40:14.928Z,1024.57
2016-12-31T09:41:14.906Z,1024.59
2016-12-31T09:42:14.885Z,1024.59
2016-12-31T09:43:14.861Z,1024.59
2016-12-31T09:44:14.841Z,1024.57
2016-12-31T09:45:14.816Z,1024.6
2016-12-31T09:46:14.795Z,1024.62
2016-12-31T09:47:14.771Z,1024.62
2016-12-31T09:48:14.749Z,1024.65
2016-12-31T09:49:14.726Z,1024.61
2016-12-31T09:50:14.705Z,1024.55
2016-12-31T09:51:14.684Z,1024.49
2016-12-31T09:52:14.661Z,1024.53
2016-12-31T09:53:14.638Z,1024.54
2016-12-31T09:54:14.615Z,1024.49
2016-12-31T09:55:14.593Z,1024.51
2016-12-31T09:56:14.571Z,1024.54
2016-12-31T09:57:14.549Z,1024.51
2016-12-31T09:58:14.526Z,1024.5
2016-12-31T09:59:14.506Z,1024.46
2016-12-31T10:00:14.484Z,1024.5
2016-12-31T10:01:14.461Z,1024.42
2016-12-31T10:02:14.438Z,1024.45
2016-12-31T10:03:14.419Z,1024.47
2016-12-31T10:04:14.397Z,1024.4
2016-12-31T10:05:14.371Z,1024.43
2016-12-31T10:06:14.350Z,1024.45
2016-12-31T10:07:14.332Z,1024.46
2016-12-31T10:08:14.306Z,1024.46
2016-12-31T10:09:14.283Z,1024.47
2016-12-31T10:10:14.263Z,1024.42
2016-12-31T10:11:14.239Z,1024.45
2016-12-31T10:12:14.216Z,1024.35
2016-12-31T10:13:14.194Z,1024.38
2016-12-31T10:14:14.171Z,1024.35
2016-12-31T10:15:14.149Z,1024.33
2016-12-31T10:16:14.125Z,1024.31
2016-12-31T10:17:14.102Z,1024.31
2016-12-31T10:18:14.080Z,1024.29
2016-12-31T10:19:14.058Z,1024.34
2016-12-31T10:20:14.036Z,1024.31
2016-12-31T10:21:14.013Z,1024.36
2016-12-31T10:22:13.991Z,1024.37
2016-12-31T10:23:13.967Z,1024.34
2016-12-31T10:24:13.945Z,1024.35
2016-12-31T10:25:13.922Z,1024.32
2016-12-31T10:26:13.901Z,1024.34
2016-12-31T10:27:13.876Z,1024.37
2016-12-31T10:28:13.855Z,1024.32
2016-12-31T10:29:13.832Z,1024.34
2016-12-31T10:30:13.809Z,1024.31
2016-12-31T10:31:13.786Z,1024.33
2016-12-31T10:32:13.767Z,1024.28
2016-12-31T10:33:13.742Z,1024.3
2016-12-31T10:34:13.718Z,1024.27
2016-12-31T10:35:13.695Z,1024.32
2016-12-31T10:36:13.674Z,1024.33
2016-12-31T10:37:13.652Z,1024.24
2016-12-31T10:38:13.628Z,1024.32
2016-12-31T10:39:13.606Z,1024.31
2016-12-31T10:40:13.584Z,1024.31
2016-12-31T10:41:13.559Z,1024.33
2016-12-31T10:42:13.538Z,1024.39
2016-12-31T10:43:13.719Z,1024.35
2016-12-31T10:44:13.495Z,1024.35
2016-12-31T10:45:13.472Z,1024.33
2016-12-31T10:46:13.449Z,1024.31
2016-12-31T10:47:13.426Z,1024.33
2016-12-31T10:48:13.404Z,1024.3
2016-12-31T10:49:13.383Z,1024.33
2016-12-31T10:50:13.358Z,1024.26
2016-12-31T10:51:13.337Z,1024.3
2016-12-31T10:52:13.312Z,1024.23
2016-12-31T10:53:13.295Z,1024.23
2016-12-31T10:54:13.269Z,1024.21
2016-12-31T10:55:13.246Z,1024.28
2016-12-31T10:56:13.223Z,1024.19
2016-12-31T10:57:13.201Z,1024.17
2016-12-31T10:58:13.178Z,1024.19
2016-12-31T10:59:13.156Z,1024.2
2016-12-31T11:00:13.133Z,1024.19
2016-12-31T11:01:13.111Z,1024.23
2016-12-31T11:02:13.089Z,1024.18
2016-12-31T11:03:13.067Z,1024.19
2016-12-31T11:04:13.043Z,1024.15
2016-12-31T11:05:13.023Z,1024.15
2016-12-31T11:06:13.001Z,1024.07
2016-12-31T11:07:12.977Z,1024.12
2016-12-31T11:08:12.954Z,1024.06
2016-12-31T11:09:12.934Z,1024.07
2016-12-31T11:10:12.912Z,1024.05
2016-12-31T11:11:12.888Z,1024.06
2016-12-31T11:12:12.865Z,1023.95
2016-12-31T11:13:12.844Z,1024
2016-12-31T11:14:12.822Z,1023.92
2016-12-31T11:15:12.802Z,1023.9
2016-12-31T11:16:12.777Z,1023.86
2016-12-31T11:17:12.760Z,1023.84
2016-12-31T11:18:12.732Z,1023.81
2016-12-31T11:19:12.710Z,1023.83
2016-12-31T11:20:12.688Z,1023.77
2016-12-31T11:21:12.667Z,1023.76
2016-12-31T11:22:12.644Z,1023.73
2016-12-31T11:23:12.623Z,1023.72
2016-12-31T11:24:12.600Z,1023.71
2016-12-31T11:25:12.575Z,1023.69
2016-12-31T11:26:12.554Z,1023.68
2016-12-31T11:27:12.532Z,1023.67
2016-12-31T11:28:12.510Z,1023.62
2016-12-31T11:29:12.486Z,1023.62
2016-12-31T11:30:12.468Z,1023.58
2016-12-31T11:31:12.441Z,1023.57
2016-12-31T11:32:12.427Z,1023.58
2016-12-31T11:33:12.398Z,1023.54
2016-12-31T11:34:12.386Z,1023.53
2016-12-31T11:35:12.405Z,1023.55
2016-12-31T11:36:12.329Z,1023.48
2016-12-31T11:37:12.308Z,1023.49
2016-12-31T11:38:12.285Z,1023.51
2016-12-31T11:39:12.261Z,1023.46
2016-12-31T11:40:12.240Z,1023.46
2016-12-31T11:41:12.218Z,1023.42
2016-12-31T11:42:12.201Z,1023.43
2016-12-31T11:43:12.181Z,1023.44
2016-12-31T11:44:12.151Z,1023.49
2016-12-31T11:45:12.128Z,1023.4
2016-12-31T11:46:12.109Z,1023.41
2016-12-31T11:47:12.085Z,1023.38
2016-12-31T11:48:12.060Z,1023.36
2016-12-31T11:49:12.040Z,1023.38
2016-12-31T11:50:12.019Z,1023.38
2016-12-31T11:51:11.992Z,1023.41
2016-12-31T11:52:11.972Z,1023.38
2016-12-31T11:53:11.949Z,1023.43
2016-12-31T11:54:11.939Z,1023.41
2016-12-31T11:55:11.904Z,1023.4
2016-12-31T11:56:11.882Z,1023.39
2016-12-31T11:57:11.866Z,1023.43
2016-12-31T11:58:11.837Z,1023.4
2016-12-31T11:59:11.817Z,1023.38
2016-12-31T12:00:11.817Z,1023.42
2016-12-31T12:01:11.772Z,1023.4
2016-12-31T12:02:11.749Z,1023.46
2016-12-31T12:03:11.729Z,1023.44
2016-12-31T12:04:11.705Z,1023.42
2016-12-31T12:05:11.682Z,1023.43
2016-12-31T12:06:11.666Z,1023.4
2016-12-31T12:07:11.639Z,1023.37
2016-12-31T12:08:11.622Z,1023.33
2016-12-31T12:09:11.595Z,1023.31